This is the latest recevied weather packets stored in our database for station/object LA4GY-1. If no packets are shown the sender has not sent any weather packets the latest 10 day(s).
| Time | Temp. | Humidity | Pressure | Rain* | Wind** | Luminosity | Snow |
|---|---|---|---|---|---|---|---|
| 1778170206 | 5° C | 88% | 1017.7 hPa | 0.51 mm | - | - | - |
| 1778169006 | 5° C | 87% | 1017.6 hPa | 0.51 mm | - | - | - |
| 1778164805 | 6.11° C | 86% | 1017.3 hPa | 0.25 mm | - | - | - |
| 1778163605 | 6.67° C | 83% | 1017.2 hPa | 0.25 mm | - | - | - |
| 1778159405 | 6.11° C | 85% | 1016.9 hPa | 0 mm | - | - | - |
| 1778158206 | 5.56° C | 85% | 1016.8 hPa | 0 mm | - | - | - |
| 1778157606 | 5.56° C | 84% | 1016.7 hPa | 0 mm | - | - | - |
| 1778155806 | 5.56° C | 86% | 1016.7 hPa | 0 mm | - | - | - |
| 1778149805 | 5.56° C | 83% | 1016.2 hPa | 0.51 mm | - | - | - |
| 1778146806 | 6.11° C | 78% | 1015.3 hPa | 0 mm | - | - | - |
| 1778144406 | 5.56° C | 79% | 1015.1 hPa | 0 mm | - | - | - |
| 1778142605 | 5.56° C | 81% | 1015 hPa | 0 mm | - | - | - |
| 1778140805 | 5° C | 85% | 1014.9 hPa | 0 mm | - | - | - |
| 1778139606 | 4.44° C | 87% | 1014.8 hPa | 0 mm | - | - | - |
| 1778133605 | 3.89° C | 90% | 1014.1 hPa | 0 mm | - | - | - |
| 1778133006 | 3.89° C | 90% | 1014.1 hPa | 0 mm | - | - | - |
| 1778132406 | 3.89° C | 90% | 1014 hPa | 0 mm | - | - | - |
| 1778128805 | 3.89° C | 91% | 1013.7 hPa | 0 mm | - | - | - |
| 1778128205 | 3.33° C | 91% | 1013.7 hPa | 0 mm | - | - | - |
| 1778125805 | 2.78° C | 92% | 1013.6 hPa | 0 mm | - | - | - |
| 1778125206 | 2.78° C | 92% | 1013.6 hPa | 0 mm | - | - | - |
| 1778123406 | 2.22° C | 91% | 1013.4 hPa | 0 mm | - | - | - |
| 1778121005 | 2.22° C | 92% | 1013.2 hPa | 0 mm | - | - | - |
| 1778119205 | 2.22° C | 91% | 1013.2 hPa | 0 mm | - | - | - |
| 1778115005 | 2.78° C | 91% | 1012.9 hPa | 0 mm | - | - | - |
* Rain latest hour (hover to see other rain measurements)
** Current wind speed in m/s (hover to see current wind gust speed)